الصفحة الرئيسية
METAR-TAF:

METAR-TAF

مطار :

مطار كونمينغ جانغشوي الدولي

كونمينغ, جمهورية الصين الشعبية

دائرة عرض: 25-01N, خط طول: 102-41E, ارتفاع: 1892 متر

مراقبة الطقس الحالي

تاريخ ووقت الإصدار 1ساعة و 1 دقيقة قبل الساعة 00:00UTC
ريح 8 عقدة من الشمال, الاتجاه يتراوح بين الشمال الغربي و الشمال الشرقي
درجة الحرارة 18°درجة مئوية
الرطوبة 100%
ضغط 1014 hPa
الرؤية: 7000 متر
غيوم قليلة على ارتفاع 600 قدم
غيوم متفرقة على ارتفاع 2300 قدم
ملبد بالغيوم على ارتفاع 3600 قدم
زخات من الأمطار الخفيفة

METAR: ZPPP 240000Z 36004MPS 310V040 7000 -SHRA FEW006 SCT023 OVC036 18/18 Q1014 NOSIG

زمن: 09:01 (01:01 UTC)

توقعات

تاريخ ووقت الإصدار 5ساعات و 57 دقيقة قبل الساعة 19:04UTC
التوقعات صالحة من24 الساعة 00 UTC إلى 24 الساعة 24 UTC
ريح 8 عقدة من الجنوب الغربي
الرؤية 10 كم أو أكثر
غيوم متفرقة على ارتفاع 2000 قدم
غيوم مفككة على ارتفاع 3300 قدم

TAF: ZPPP 231904Z 2400/2424 22004MPS 9999 SCT020 BKN033 TX23/2408Z TN16/2400Z

أرصاد الطقس والتوقعات من أكثر من 4000 مطار (تقارير الطقس للمطار METAR والتنبؤ بالطقس بالمطارTAF).

المحطات المتاحة هي النقط الصفراء والحمراء على الخريطة.

حرك المؤشر فوق النقطة لمعرفة اسم المحطة.

ثم انقر لمعرفة أرصاد وتوقعات الطقس.

لتغيير الخارطة: اضغط على الأزرار الخضراء مع رمز الصليب الأسود للتكبير. على الزر الأخضر مع شرطة للتصغير، أو على الأسهم الخضراء للخرائط المجاورة.


METAR-TAF: